Time;durP1;ratioP1;P1;durP2;ratioP2;P2;SDS_P1;SDS_P2;PMS_P1;PMS_P2;Temp;Humidity;BMP_temperature;BMP_pressure;BME280_temperature;BME280_humidity;BME280_pressure;Samples;Min_cycle;Max_cycle;Signal;HPM_P1;HPM_P2
2022/11/30 00:02:06;;;;;;;1.08;1.00;;;;;;;3.53;100.00;94775.78;5064597;28;20749;-77
2022/11/30 00:04:33;;;;;;;1.48;0.98;;;;;;;3.52;100.00;94780.34;5053480;28;20638;-77
2022/11/30 00:06:59;;;;;;;0.45;0.45;;;;;;;3.51;100.00;94784.09;5072574;28;20207;-75
2022/11/30 00:09:26;;;;;;;2.70;1.50;;;;;;;3.54;100.00;94788.91;5059464;28;20199;-77
2022/11/30 00:11:53;;;;;;;0.60;0.60;;;;;;;3.57;100.00;94791.00;5065885;28;20196;-76
2022/11/30 00:14:20;;;;;;;2.55;0.60;;;;;;;3.58;100.00;94789.13;5058334;28;20353;-77
2022/11/30 00:16:48;;;;;;;1.55;1.02;;;;;;;3.65;100.00;94789.63;5060284;28;20559;-77
2022/11/30 00:19:14;;;;;;;0.95;0.60;;;;;;;3.64;100.00;94787.22;5059230;28;20200;-76
2022/11/30 00:21:41;;;;;;;1.17;1.08;;;;;;;3.63;100.00;94790.97;5064755;28;20330;-76
2022/11/30 00:24:08;;;;;;;1.10;0.70;;;;;;;3.53;100.00;94807.91;5065824;28;20199;-77
2022/11/30 00:26:35;;;;;;;1.55;0.68;;;;;;;3.53;100.00;94803.38;5060534;28;20728;-77
2022/11/30 00:29:02;;;;;;;0.30;0.30;;;;;;;3.58;100.00;94803.31;5058964;28;20203;-75
2022/11/30 00:31:29;;;;;;;2.25;1.38;;;;;;;3.48;100.00;94800.72;5064500;28;20262;-76
2022/11/30 00:33:57;;;;;;;1.65;0.95;;;;;;;3.52;100.00;94807.13;5065045;28;20300;-76
2022/11/30 00:36:24;;;;;;;1.38;0.88;;;;;;;3.52;100.00;94807.13;5052215;28;20589;-75
2022/11/30 00:38:51;;;;;;;0.47;0.43;;;;;;;3.44;100.00;94805.00;5065470;28;20203;-76
2022/11/30 00:41:19;;;;;;;0.88;0.88;;;;;;;3.44;100.00;94809.56;5059787;28;20227;-76
2022/11/30 00:43:46;;;;;;;1.17;1.02;;;;;;;3.43;100.00;94798.06;5058703;28;20261;-76
2022/11/30 00:46:13;;;;;;;0.65;0.65;;;;;;;3.45;100.00;94798.59;5063971;28;20195;-76
2022/11/30 00:48:40;;;;;;;1.52;1.00;;;;;;;3.44;100.00;94796.97;5064556;28;20208;-76
2022/11/30 00:51:11;;;;;;;0.35;0.35;;;;;;;3.49;100.00;94794.28;5061837;28;20252;-76
2022/11/30 00:53:38;;;;;;;0.68;0.68;;;;;;;3.45;100.00;94790.56;5058893;28;20265;-76
2022/11/30 00:56:05;;;;;;;0.57;0.57;;;;;;;3.54;100.00;94794.25;5061652;28;20208;-76
2022/11/30 00:58:32;;;;;;;0.52;0.52;;;;;;;3.53;100.00;94786.50;5069161;28;20203;-76
2022/11/30 01:00:59;;;;;;;1.50;1.10;;;;;;;3.62;100.00;94789.38;5061068;28;20265;-77
2022/11/30 01:03:29;;;;;;;0.75;0.70;;;;;;;3.61;100.00;94798.47;5055961;28;20233;-77
2022/11/30 01:06:01;;;;;;;0.88;0.60;;;;;;;3.62;100.00;94792.03;5060802;28;20207;-77
2022/11/30 01:08:29;;;;;;;1.05;0.63;;;;;;;3.67;100.00;94786.66;5065150;28;20204;-76
2022/11/30 01:10:57;;;;;;;0.43;0.43;;;;;;;3.66;100.00;94779.69;5064353;28;20298;-76
2022/11/30 01:13:24;;;;;;;1.00;0.90;;;;;;;3.62;100.00;94784.00;5058359;28;20226;-76
2022/11/30 01:15:51;;;;;;;5.32;1.02;;;;;;;3.63;100.00;94785.63;5057825;28;20555;-76
2022/11/30 01:18:17;;;;;;;0.80;0.80;;;;;;;3.69;100.00;94779.16;5064316;28;20204;-76
2022/11/30 01:20:44;;;;;;;0.40;0.40;;;;;;;3.64;100.00;94787.22;5064636;28;20195;-76
2022/11/30 01:23:11;;;;;;;2.35;1.02;;;;;;;3.66;100.00;94795.78;5054591;28;20272;-78
2022/11/30 01:25:40;;;;;;;1.17;0.73;;;;;;;3.63;100.00;94780.25;5057260;28;20202;-78
2022/11/30 01:28:09;;;;;;;2.05;0.50;;;;;;;3.54;100.00;94786.22;5059241;28;20424;-76
2022/11/30 01:30:35;;;;;;;1.45;0.75;;;;;;;3.54;100.00;94788.09;5055923;28;20750;-76
2022/11/30 01:33:03;;;;;;;0.60;0.60;;;;;;;3.39;100.00;94791.69;5058969;28;20818;-78
2022/11/30 01:35:30;;;;;;;0.47;0.47;;;;;;;3.38;100.00;94784.72;5055076;28;20191;-76
2022/11/30 01:37:57;;;;;;;0.52;0.52;;;;;;;3.36;100.00;94783.41;5059259;28;20199;-76
2022/11/30 01:40:23;;;;;;;2.65;0.98;;;;;;;3.34;100.00;94783.66;5056900;28;20671;-76
2022/11/30 01:42:51;;;;;;;3.83;0.60;;;;;;;3.42;100.00;94784.94;5063014;28;20228;-74
2022/11/30 01:45:18;;;;;;;0.65;0.52;;;;;;;3.33;100.00;94792.78;5064607;28;20210;-74
2022/11/30 01:47:49;;;;;;;0.65;0.65;;;;;;;3.25;100.00;94790.69;5059581;28;20203;-74
2022/11/30 01:50:20;;;;;;;0.77;0.77;;;;;;;3.24;100.00;94783.75;5054688;28;20200;-74
2022/11/30 01:52:50;;;;;;;0.85;0.85;;;;;;;3.23;100.00;94784.81;5060428;28;20207;-76
2022/11/30 01:55:22;;;;;;;0.70;0.70;;;;;;;3.23;100.00;94776.78;5056796;28;20203;-76
2022/11/30 01:57:55;;;;;;;1.20;0.50;;;;;;;3.35;100.00;94784.47;5059715;28;20195;-75
2022/11/30 02:00:22;;;;;;;0.50;0.47;;;;;;;3.34;100.00;94777.53;5063482;28;20203;-76
2022/11/30 02:02:56;;;;;;;2.15;1.20;;;;;;;3.31;100.00;94778.88;5051105;28;20228;-76
2022/11/30 02:05:25;;;;;;;0.60;0.60;;;;;;;3.28;100.00;94774.06;5064080;28;20604;-76
2022/11/30 02:07:52;;;;;;;2.00;0.77;;;;;;;3.42;100.00;94780.38;5063914;28;20875;-76
2022/11/30 02:10:24;;;;;;;0.73;0.73;;;;;;;3.46;100.00;94770.72;5057166;28;20743;-75
2022/11/30 02:13:25;;;;;;;1.02;0.77;;;;;;;3.38;100.00;94770.53;5057194;28;20246;-75
2022/11/30 02:16:01;;;;;;;1.45;0.70;;;;;;;3.28;100.00;94767.94;5057415;28;20667;-75
2022/11/30 02:18:33;;;;;;;0.60;0.60;;;;;;;3.39;100.00;94770.25;5057784;28;20213;-75
2022/11/30 02:21:08;;;;;;;0.52;0.52;;;;;;;3.45;100.00;94774.47;5057107;28;20604;-75
2022/11/30 02:24:23;;;;;;;0.60;0.60;;;;;;;3.38;100.00;94774.00;5069936;28;20264;-75
2022/11/30 02:27:11;;;;;;;0.50;0.50;;;;;;;3.23;100.00;94768.75;4988224;28;20197;-75
2022/11/30 02:29:42;;;;;;;1.48;0.80;;;;;;;3.20;100.00;94774.66;5056440;28;20605;-76
2022/11/30 02:32:15;;;;;;;3.20;2.03;;;;;;;3.17;100.00;94772.53;5059680;28;20203;-75
2022/11/30 02:34:44;;;;;;;1.25;0.90;;;;;;;3.15;100.00;94763.97;5059780;28;20231;-77
2022/11/30 02:37:13;;;;;;;0.77;0.40;;;;;;;3.21;100.00;94770.91;5061294;28;20261;-77
2022/11/30 02:39:40;;;;;;;0.68;0.65;;;;;;;3.18;100.00;94769.59;5061885;28;20253;-76
2022/11/30 02:42:11;;;;;;;0.60;0.60;;;;;;;3.29;100.00;94761.47;5062874;28;20289;-76
2022/11/30 02:44:40;;;;;;;1.20;0.90;;;;;;;3.12;100.00;94754.66;5058560;28;20724;-76
2022/11/30 02:47:18;;;;;;;0.43;0.43;;;;;;;3.19;100.00;94759.69;5067379;28;20199;-76
2022/11/30 02:49:52;;;;;;;0.90;0.60;;;;;;;3.16;100.00;94760.22;5049867;28;20256;-76
2022/11/30 02:52:22;;;;;;;0.65;0.52;;;;;;;3.16;100.00;94763.72;5055940;28;20187;-75
2022/11/30 02:54:49;;;;;;;1.38;1.25;;;;;;;3.16;100.00;94765.59;5056254;28;20203;-76
2022/11/30 02:57:16;;;;;;;0.50;0.50;;;;;;;3.34;100.00;94764.94;5062764;28;20200;-76
2022/11/30 02:59:44;;;;;;;0.70;0.70;;;;;;;3.33;100.00;94763.34;5049416;28;20248;-77
2022/11/30 03:02:11;;;;;;;0.30;0.30;;;;;;;3.27;100.00;94767.13;5062336;28;20231;-76
2022/11/30 03:04:37;;;;;;;1.85;1.02;;;;;;;3.15;100.00;94772.81;5062828;28;20253;-76
2022/11/30 03:07:04;;;;;;;1.30;1.15;;;;;;;3.15;100.00;94767.47;5057368;28;20208;-76
2022/11/30 03:09:31;;;;;;;0.75;0.75;;;;;;;3.20;100.00;94762.09;5056066;28;20203;-77
2022/11/30 03:11:58;;;;;;;1.05;0.95;;;;;;;3.21;100.00;94762.88;5069610;28;20610;-76
2022/11/30 03:14:24;;;;;;;0.65;0.55;;;;;;;3.20;100.00;94759.41;5055106;28;20207;-77
2022/11/30 03:16:52;;;;;;;0.75;0.75;;;;;;;3.21;100.00;94768.22;5056900;28;20203;-77
2022/11/30 03:19:19;;;;;;;0.82;0.82;;;;;;;3.25;100.00;94758.59;5056249;28;20211;-76
2022/11/30 03:21:46;;;;;;;0.65;0.60;;;;;;;3.25;100.00;94763.13;5061745;28;20203;-77
2022/11/30 03:24:13;;;;;;;0.32;0.30;;;;;;;3.27;100.00;94767.13;5050058;28;20223;-75
2022/11/30 03:26:43;;;;;;;0.88;0.80;;;;;;;3.28;100.00;94757.22;5056071;28;20302;-76
2022/11/30 03:29:09;;;;;;;0.45;0.45;;;;;;;3.27;100.00;94761.78;5054164;28;20207;-74
2022/11/30 03:31:36;;;;;;;0.75;0.73;;;;;;;3.27;100.00;94761.78;5049096;28;20430;-75
2022/11/30 03:34:13;;;;;;;0.45;0.40;;;;;;;3.20;100.00;94754.06;5062316;28;20226;-75
2022/11/30 03:36:40;;;;;;;7.47;1.75;;;;;;;3.25;100.00;94763.13;5059589;28;20634;-76
2022/11/30 03:39:07;;;;;;;0.40;0.40;;;;;;;3.25;100.00;94769.28;5055689;28;20268;-74
2022/11/30 03:41:35;;;;;;;0.55;0.55;;;;;;;3.28;100.00;94771.38;5069344;28;20257;-77
2022/11/30 03:44:02;;;;;;;0.63;0.60;;;;;;;3.26;100.00;94767.41;5055615;28;20667;-74
2022/11/30 03:46:29;;;;;;;0.63;0.57;;;;;;;3.25;100.00;94768.50;5067569;28;20203;-76
2022/11/30 03:48:55;;;;;;;0.38;0.38;;;;;;;3.28;100.00;94763.34;5053972;28;20245;-72
2022/11/30 03:51:23;;;;;;;0.30;0.30;;;;;;;3.28;100.00;94778.66;5057225;28;20276;-76
2022/11/30 03:53:50;;;;;;;0.57;0.57;;;;;;;3.27;100.00;94774.38;5054424;28;20724;-75
2022/11/30 03:56:17;;;;;;;0.90;0.90;;;;;;;3.20;100.00;94774.66;5057027;28;20671;-76
2022/11/30 03:58:44;;;;;;;0.30;0.30;;;;;;;3.26;100.00;94775.44;5054539;28;20613;-76
2022/11/30 04:01:14;;;;;;;0.32;0.32;;;;;;;3.26;100.00;94770.09;5056607;28;20195;-74
2022/11/30 04:03:41;;;;;;;0.43;0.43;;;;;;;3.18;100.00;94779.50;5062634;28;20498;-75
2022/11/30 04:06:10;;;;;;;0.45;0.45;;;;;;;3.16;100.00;94778.97;5062104;28;20237;-77
2022/11/30 04:08:39;;;;;;;0.57;0.57;;;;;;;3.22;100.00;94780.53;5055934;28;20230;-74
2022/11/30 04:11:06;;;;;;;0.50;0.50;;;;;;;3.21;100.00;94778.94;5055232;28;20248;-77
2022/11/30 04:13:35;;;;;;;0.43;0.43;;;;;;;3.11;100.00;94770.97;5061546;28;20234;-76
2022/11/30 04:16:02;;;;;;;1.05;0.63;;;;;;;3.13;100.00;94776.88;5062199;28;20215;-75
2022/11/30 04:18:30;;;;;;;0.25;0.25;;;;;;;3.15;100.00;94782.72;5048472;28;20208;-76
2022/11/30 04:20:58;;;;;;;0.28;0.28;;;;;;;3.18;100.00;94782.16;5062809;28;20256;-75
2022/11/30 04:23:29;;;;;;;0.28;0.28;;;;;;;3.18;100.00;94785.66;5069515;28;20709;-75
2022/11/30 04:25:57;;;;;;;0.32;0.32;;;;;;;3.20;100.00;94788.03;5058819;28;20823;-74
2022/11/30 04:28:24;;;;;;;0.30;0.30;;;;;;;3.21;100.00;94786.97;5063383;28;20195;-74
2022/11/30 04:30:53;;;;;;;0.65;0.65;;;;;;;3.15;100.00;94785.38;5065793;28;20256;-76
2022/11/30 04:33:19;;;;;;;0.20;0.20;;;;;;;3.24;100.00;94794.44;5061129;28;20227;-78
2022/11/30 04:35:49;;;;;;;0.30;0.30;;;;;;;3.22;100.00;94785.91;5058162;28;20280;-78
2022/11/30 04:38:16;;;;;;;0.85;0.50;;;;;;;3.47;100.00;94776.88;5061764;28;20199;-76
2022/11/30 04:40:43;;;;;;;0.80;0.52;;;;;;;3.82;100.00;94783.84;5055376;28;20300;-74
2022/11/30 04:43:12;;;;;;;0.80;0.80;;;;;;;4.00;100.00;94780.47;5064640;28;20223;-77
2022/11/30 04:45:39;;;;;;;0.65;0.60;;;;;;;4.52;100.00;94776.16;5053210;28;20199;-76
2022/11/30 04:48:07;;;;;;;1.33;0.75;;;;;;;3.76;100.00;94780.41;5062458;28;20203;-78
2022/11/30 04:50:34;;;;;;;1.38;0.93;;;;;;;3.47;100.00;94796.44;5058358;28;20212;-77
2022/11/30 04:53:01;;;;;;;0.90;0.90;;;;;;;3.34;100.00;94786.34;5060222;28;20213;-77
2022/11/30 04:55:28;;;;;;;0.30;0.30;;;;;;;3.35;100.00;94800.53;5056830;28;20206;-77
2022/11/30 04:57:54;;;;;;;0.82;0.73;;;;;;;3.29;100.00;94799.75;5058100;28;20225;-78
2022/11/30 05:00:23;;;;;;;0.70;0.70;;;;;;;3.27;100.00;94801.94;5052206;28;20212;-76
2022/11/30 05:02:50;;;;;;;1.00;1.00;;;;;;;3.21;100.00;94789.66;5064125;28;20235;-77
2022/11/30 05:05:17;;;;;;;1.27;1.10;;;;;;;3.32;100.00;94796.53;5057796;28;20247;-75
2022/11/30 05:07:44;;;;;;;4.28;1.15;;;;;;;3.29;100.00;94797.09;5060881;28;20203;-77
2022/11/30 05:10:11;;;;;;;2.47;1.15;;;;;;;3.28;100.00;94800.06;5057752;28;20211;-76
2022/11/30 05:12:39;;;;;;;1.15;0.55;;;;;;;3.31;100.00;94802.97;5053569;28;20675;-79
2022/11/30 05:15:07;;;;;;;1.33;1.10;;;;;;;3.17;100.00;94800.09;5050232;28;20627;-77
2022/11/30 05:17:43;;;;;;;0.82;0.80;;;;;;;3.20;100.00;94804.09;5064830;28;20203;-77
2022/11/30 05:20:11;;;;;;;0.55;0.55;;;;;;;3.20;100.00;94806.78;5062606;28;20195;-77
2022/11/30 05:22:38;;;;;;;0.85;0.85;;;;;;;3.22;100.00;94810.00;5064617;28;20276;-76
2022/11/30 05:25:05;;;;;;;0.43;0.43;;;;;;;3.22;100.00;94810.00;5063292;28;20204;-77
2022/11/30 05:27:32;;;;;;;0.43;0.43;;;;;;;3.22;100.00;94808.13;5064932;28;20199;-78
2022/11/30 05:29:58;;;;;;;0.85;0.70;;;;;;;3.22;100.00;94796.59;5051204;28;20266;-77
2022/11/30 05:32:25;;;;;;;0.70;0.68;;;;;;;3.26;100.00;94805.69;5051112;28;20200;-77
2022/11/30 05:34:53;;;;;;;0.45;0.32;;;;;;;3.20;100.00;94799.56;5049503;28;20236;-77
2022/11/30 05:37:20;;;;;;;0.50;0.50;;;;;;;3.15;100.00;94801.44;5051505;28;20199;-78
2022/11/30 05:39:47;;;;;;;0.90;0.73;;;;;;;3.09;100.00;94807.91;5050669;28;20199;-77
2022/11/30 05:42:13;;;;;;;0.57;0.57;;;;;;;3.17;100.00;94810.00;5063142;28;20219;-77
2022/11/30 05:44:40;;;;;;;0.60;0.60;;;;;;;3.20;100.00;94809.47;5060388;28;20228;-77
2022/11/30 05:47:07;;;;;;;0.60;0.45;;;;;;;3.17;100.00;94816.16;5068214;28;20211;-78
2022/11/30 05:49:34;;;;;;;0.40;0.40;;;;;;;3.12;100.00;94823.44;5050835;28;20232;-77
2022/11/30 05:52:02;;;;;;;1.05;0.63;;;;;;;3.17;100.00;94818.03;5064232;28;20465;-77
2022/11/30 05:54:29;;;;;;;2.47;1.20;;;;;;;3.21;100.00;94817.22;5051434;28;20207;-76
2022/11/30 05:56:55;;;;;;;0.52;0.52;;;;;;;3.29;100.00;94825.72;5054418;28;20203;-79
2022/11/30 05:59:22;;;;;;;0.55;0.50;;;;;;;3.33;100.00;94824.09;5059766;28;20253;-80
2022/11/30 06:01:51;;;;;;;0.50;0.50;;;;;;;3.22;100.00;94824.16;5063973;28;20199;-78
2022/11/30 06:04:18;;;;;;;0.30;0.30;;;;;;;3.29;100.00;94834.56;5061899;28;20256;-78
2022/11/30 06:06:45;;;;;;;0.93;0.90;;;;;;;3.33;100.00;94830.25;5056891;28;20199;-78
2022/11/30 06:09:13;;;;;;;0.30;0.30;;;;;;;3.38;100.00;94837.47;5058790;28;20557;-79
2022/11/30 06:11:40;;;;;;;0.40;0.40;;;;;;;3.29;100.00;94845.25;5063592;28;20204;-79
2022/11/30 06:14:06;;;;;;;0.43;0.40;;;;;;;3.18;100.00;94838.38;5050087;28;20230;-78
2022/11/30 06:16:33;;;;;;;0.95;0.60;;;;;;;3.22;100.00;94842.91;5063551;28;20199;-78
2022/11/30 06:19:00;;;;;;;0.40;0.40;;;;;;;3.26;100.00;94851.19;5062644;28;20302;-77
2022/11/30 06:21:26;;;;;;;1.27;0.43;;;;;;;3.26;100.00;94851.19;5050036;28;20881;-79
2022/11/30 06:23:53;;;;;;;0.40;0.40;;;;;;;3.33;100.00;94854.34;5062552;28;20280;-77
2022/11/30 06:26:21;;;;;;;1.73;1.17;;;;;;;3.29;100.00;94845.25;5050482;28;20208;-79
2022/11/30 06:28:48;;;;;;;0.35;0.35;;;;;;;3.33;100.00;94856.22;5050347;28;20624;-78
2022/11/30 06:31:15;;;;;;;1.52;0.57;;;;;;;3.34;100.00;94845.25;5069824;28;20222;-80
2022/11/30 06:33:42;;;;;;;0.77;0.60;;;;;;;3.33;100.00;94835.63;5056041;28;20810;-80
2022/11/30 06:36:10;;;;;;;0.85;0.60;;;;;;;3.36;100.00;94848.44;5062737;28;20205;-77
2022/11/30 06:38:37;;;;;;;1.55;0.73;;;;;;;3.37;100.00;94847.38;5061967;28;20203;-79
2022/11/30 06:41:05;;;;;;;1.42;1.33;;;;;;;3.34;100.00;94858.63;5056834;28;20230;-80
2022/11/30 06:43:38;;;;;;;0.68;0.52;;;;;;;3.39;100.00;94855.94;5054810;28;20228;-78
2022/11/30 06:46:06;;;;;;;1.45;0.50;;;;;;;3.37;100.00;94857.28;5051437;28;20257;-77
2022/11/30 06:48:33;;;;;;;1.95;1.80;;;;;;;3.40;100.00;94852.19;5063416;28;20203;-78
2022/11/30 06:51:00;;;;;;;1.00;0.80;;;;;;;3.35;100.00;94860.25;5058308;28;20203;-78
2022/11/30 06:53:27;;;;;;;0.40;0.40;;;;;;;3.44;100.00;94861.25;5062900;28;20676;-80
2022/11/30 06:55:54;;;;;;;1.27;0.80;;;;;;;3.45;100.00;94851.34;5058467;28;20265;-78
2022/11/30 06:58:21;;;;;;;1.05;0.75;;;;;;;3.41;100.00;94848.44;5067222;28;20206;-81
2022/11/30 07:00:49;;;;;;;0.80;0.80;;;;;;;3.50;100.00;94849.44;5058425;28;20203;-77
2022/11/30 07:03:16;;;;;;;0.70;0.63;;;;;;;3.50;100.00;94845.97;5055579;28;20234;-78
2022/11/30 07:05:45;;;;;;;2.28;1.02;;;;;;;3.52;100.00;94844.59;5069340;28;20253;-77
2022/11/30 07:08:12;;;;;;;0.30;0.30;;;;;;;3.61;100.00;94846.69;5055576;28;20233;-79
2022/11/30 07:10:42;;;;;;;1.15;0.95;;;;;;;3.57;100.00;94847.22;5059436;28;20223;-79
2022/11/30 07:13:10;;;;;;;1.13;0.93;;;;;;;3.60;100.00;94850.44;5066141;28;20206;-79
2022/11/30 07:15:38;;;;;;;0.68;0.68;;;;;;;3.57;100.00;94847.22;5058281;28;20290;-78
2022/11/30 07:18:06;;;;;;;2.17;1.98;;;;;;;3.53;100.00;94846.22;5058012;28;20195;-73
2022/11/30 07:20:33;;;;;;;1.63;1.42;;;;;;;3.57;100.00;94846.44;5056976;28;20188;-74
2022/11/30 07:26:05;;;;;;;0.30;0.30;;;;;;;3.58;100.00;94848.84;5059915;28;20657;-78
2022/11/30 07:26:05;;;;;;;1.02;0.68;;;;;;;3.54;100.00;94838.97;5052353;28;20218;-76
2022/11/30 07:28:32;;;;;;;1.15;0.85;;;;;;;3.57;100.00;94841.88;5055464;28;20293;-77
2022/11/30 07:30:59;;;;;;;0.63;0.63;;;;;;;3.61;100.00;94846.69;5052677;28;20674;-76
2022/11/30 07:33:27;;;;;;;1.50;0.70;;;;;;;3.69;100.00;94848.78;5049768;28;20271;-75
2022/11/30 07:35:57;;;;;;;2.22;1.27;;;;;;;3.63;100.00;94844.53;5061254;28;20192;-76
2022/11/30 07:38:24;;;;;;;1.70;1.38;;;;;;;3.67;100.00;94850.94;5061530;28;20218;-75
2022/11/30 07:40:54;;;;;;;0.90;0.75;;;;;;;3.72;100.00;94845.53;5062688;28;20295;-76
2022/11/30 07:43:20;;;;;;;1.17;0.63;;;;;;;3.79;100.00;94843.34;5057309;28;20229;-76
2022/11/30 07:45:52;;;;;;;0.73;0.70;;;;;;;3.83;100.00;94836.34;5057941;28;20186;-75
2022/11/30 07:48:19;;;;;;;0.68;0.68;;;;;;;3.87;100.00;94838.19;5059202;28;20235;-77
2022/11/30 07:50:48;;;;;;;0.63;0.63;;;;;;;3.81;100.00;94843.88;5049828;28;20287;-78
2022/11/30 07:53:15;;;;;;;3.58;1.38;;;;;;;3.88;100.00;94847.03;5056496;28;20265;-77
2022/11/30 07:55:42;;;;;;;0.68;0.68;;;;;;;3.78;100.00;94842.56;5057792;28;20256;-78
2022/11/30 07:58:10;;;;;;;0.30;0.30;;;;;;;3.93;100.00;94844.31;5057424;28;20214;-78
2022/11/30 08:00:37;;;;;;;1.60;1.50;;;;;;;3.99;100.00;94843.19;5060881;28;20658;-75
2022/11/30 08:03:04;;;;;;;3.03;1.23;;;;;;;3.97;100.00;94839.97;5061551;28;20249;-77
2022/11/30 08:05:31;;;;;;;1.70;1.13;;;;;;;4.02;100.00;94837.25;5060573;28;20732;-76
2022/11/30 08:07:59;;;;;;;1.40;1.15;;;;;;;4.09;100.00;94843.13;5057338;28;20589;-75
2022/11/30 08:10:26;;;;;;;3.33;1.73;;;;;;;4.09;100.00;94832.41;5060123;28;20200;-77
2022/11/30 08:12:53;;;;;;;1.50;1.15;;;;;;;4.08;100.00;94840.72;5063879;28;20248;-74
2022/11/30 08:15:20;;;;;;;1.15;1.05;;;;;;;3.92;100.00;94835.47;5062680;28;20208;-73
2022/11/30 08:17:48;;;;;;;0.32;0.32;;;;;;;3.97;100.00;94845.34;5055978;28;20196;-75
2022/11/30 08:20:15;;;;;;;0.40;0.40;;;;;;;3.98;100.00;94841.56;5061560;28;20210;-77
2022/11/30 08:22:42;;;;;;;7.53;0.90;;;;;;;4.00;100.00;94843.97;5058163;28;20295;-76
2022/11/30 08:25:10;;;;;;;1.25;1.20;;;;;;;3.97;100.00;94845.34;5063127;28;20255;-74
2022/11/30 08:27:37;;;;;;;0.70;0.43;;;;;;;4.06;100.00;94849.03;5058773;28;20199;-76
2022/11/30 08:30:05;;;;;;;2.35;1.48;;;;;;;4.12;100.00;94847.88;5061864;28;20200;-75
2022/11/30 08:32:32;;;;;;;0.45;0.45;;;;;;;4.00;100.00;94844.78;5065478;28;20604;-77
2022/11/30 08:34:59;;;;;;;1.25;0.88;;;;;;;3.91;100.00;94847.28;5061756;28;20207;-76
2022/11/30 08:37:26;;;;;;;0.30;0.30;;;;;;;3.87;100.00;94845.41;5054986;28;20192;-76
2022/11/30 08:39:52;;;;;;;0.93;0.88;;;;;;;3.82;100.00;94848.97;5061713;28;20219;-78
2022/11/30 08:42:20;;;;;;;0.65;0.63;;;;;;;3.84;100.00;94862.84;5054734;28;20207;-77
2022/11/30 08:44:47;;;;;;;6.72;3.25;;;;;;;3.86;100.00;94849.19;5062009;28;20238;-74
2022/11/30 08:47:17;;;;;;;1.98;0.50;;;;;;;3.86;100.00;94827.75;5057454;28;20872;-76
2022/11/30 08:49:44;;;;;;;1.55;0.77;;;;;;;3.97;100.00;94845.34;5059700;28;20201;-76
2022/11/30 08:52:10;;;;;;;0.43;0.43;;;;;;;3.98;100.00;94840.78;5064341;28;20855;-76
2022/11/30 08:54:38;;;;;;;0.40;0.40;;;;;;;3.97;100.00;94839.97;5063098;28;20199;-77
2022/11/30 08:57:05;;;;;;;1.25;0.70;;;;;;;4.05;100.00;94836.72;5071273;28;20285;-77
2022/11/30 08:59:33;;;;;;;2.45;1.45;;;;;;;4.09;100.00;94843.13;5059468;28;20207;-76
2022/11/30 09:02:00;;;;;;;2.25;0.75;;;;;;;4.10;100.00;94844.69;5064711;28;20300;-74
2022/11/30 09:04:27;;;;;;;1.55;1.27;;;;;;;4.18;100.00;94852.13;5063877;28;20249;-76
2022/11/30 09:06:57;;;;;;;1.20;1.10;;;;;;;4.20;100.00;94843.81;5052186;28;20560;-74
2022/11/30 09:09:24;;;;;;;0.20;0.20;;;;;;;4.19;100.00;94853.75;5064334;28;20191;-76
2022/11/30 09:11:51;;;;;;;2.85;1.08;;;;;;;4.06;100.00;94849.03;5057653;28;20206;-75
2022/11/30 09:14:18;;;;;;;0.70;0.70;;;;;;;4.11;100.00;94854.31;5057906;28;20210;-76
2022/11/30 09:16:46;;;;;;;0.68;0.68;;;;;;;4.15;100.00;94844.66;5064219;28;20210;-76
2022/11/30 09:19:13;;;;;;;1.27;0.90;;;;;;;4.20;100.00;94855.34;5050829;28;20597;-75
2022/11/30 09:21:40;;;;;;;3.22;0.85;;;;;;;4.28;100.00;94852.03;5057136;28;20684;-75
2022/11/30 09:24:07;;;;;;;0.80;0.80;;;;;;;4.29;100.00;94845.59;5069166;28;20269;-74
2022/11/30 09:26:34;;;;;;;2.35;0.63;;;;;;;4.29;100.00;94850.16;5057794;28;20237;-75
2022/11/30 09:29:01;;;;;;;0.50;0.50;;;;;;;4.23;100.00;94853.97;5057596;28;20211;-76
2022/11/30 09:31:28;;;;;;;1.08;0.82;;;;;;;4.35;100.00;94859.78;5063416;28;20203;-75
2022/11/30 09:33:58;;;;;;;0.30;0.30;;;;;;;4.44;100.00;94860.75;5050818;28;20231;-74
2022/11/30 09:36:27;;;;;;;0.77;0.65;;;;;;;4.42;100.00;94862.09;5058878;28;20199;-74
2022/11/30 09:38:55;;;;;;;1.75;1.05;;;;;;;4.29;100.00;94867.03;5057180;28;20191;-78
2022/11/30 09:41:46;;;;;;;0.50;0.47;;;;;;;4.35;100.00;94856.28;5051061;28;20223;-77
2022/11/30 09:44:21;;;;;;;1.67;0.47;;;;;;;4.38;100.00;94866.44;5053139;28;20219;-76
2022/11/30 09:46:53;;;;;;;0.45;0.45;;;;;;;4.48;100.00;94866.34;5063879;28;20229;-76
2022/11/30 09:49:24;;;;;;;0.60;0.60;;;;;;;4.57;100.00;94870.00;5059003;28;20207;-77
2022/11/30 09:51:55;;;;;;;0.40;0.40;;;;;;;4.58;100.00;94866.25;5054869;28;20212;-78
2022/11/30 09:54:34;;;;;;;0.43;0.43;;;;;;;4.53;100.00;94863.59;5055491;28;20299;-75
2022/11/30 09:57:05;;;;;;;1.92;0.70;;;;;;;4.49;100.00;94868.75;5055256;28;20203;-81
2022/11/30 09:59:36;;;;;;;0.63;0.50;;;;;;;4.49;100.00;94847.28;5058593;28;20192;-83
2022/11/30 10:02:15;;;;;;;0.40;0.40;;;;;;;4.53;100.00;94852.88;5064267;28;20200;-80
2022/11/30 10:04:43;;;;;;;0.40;0.40;;;;;;;4.60;100.00;94847.97;5064000;28;20217;-79
2022/11/30 10:07:35;;;;;;;0.47;0.40;;;;;;;4.61;100.00;94850.38;5059215;28;20296;-81
2022/11/30 10:10:08;;;;;;;0.75;0.40;;;;;;;4.56;100.00;94846.94;5056956;28;20201;-81
2022/11/30 10:12:42;;;;;;;0.43;0.43;;;;;;;4.59;100.00;94851.75;5070900;28;20203;-84
2022/11/30 10:15:22;;;;;;;0.70;0.70;;;;;;;4.58;100.00;94852.81;5058417;28;20230;-82
2022/11/30 10:17:55;;;;;;;0.40;0.40;;;;;;;4.63;100.00;94850.09;5056939;28;20264;-81
2022/11/30 10:20:51;;;;;;;0.70;0.60;;;;;;;4.49;100.00;94852.66;5059066;28;20199;-81
2022/11/30 10:23:31;;;;;;;3.42;0.95;;;;;;;4.45;100.00;94835.53;5058915;28;20897;-82
2022/11/30 10:25:59;;;;;;;0.57;0.57;;;;;;;4.58;100.00;94844.78;5067278;28;20234;-83
2022/11/30 10:28:40;;;;;;;0.30;0.30;;;;;;;4.55;100.00;94835.41;5051975;28;20261;-81
2022/11/30 10:31:10;;;;;;;3.10;0.75;;;;;;;4.49;100.00;94838.44;5064571;28;20212;-79
2022/11/30 10:33:43;;;;;;;0.50;0.50;;;;;;;4.43;100.00;94826.16;5062794;28;20242;-79
2022/11/30 10:36:15;;;;;;;1.00;0.90;;;;;;;4.34;100.00;94835.91;5062980;28;20269;-77
2022/11/30 10:38:44;;;;;;;0.65;0.65;;;;;;;4.34;100.00;94835.91;5063532;28;20194;-78
2022/11/30 10:41:16;;;;;;;1.17;1.05;;;;;;;4.42;100.00;94829.91;5052712;28;20299;-78
2022/11/30 10:43:48;;;;;;;0.50;0.50;;;;;;;4.59;100.00;94830.28;5051864;28;20253;-77
2022/11/30 10:46:27;;;;;;;1.17;1.08;;;;;;;4.58;100.00;94834.84;5059335;28;20273;-78
2022/11/30 10:48:58;;;;;;;1.65;1.02;;;;;;;4.72;100.00;94820.75;5063457;28;20207;-79
2022/11/30 10:51:27;;;;;;;2.28;1.38;;;;;;;4.65;100.00;94823.75;5049262;28;20663;-85
2022/11/30 10:53:54;;;;;;;1.63;1.13;;;;;;;4.63;100.00;94821.41;5069381;28;20245;-82
2022/11/30 10:56:21;;;;;;;2.15;1.13;;;;;;;4.55;100.00;94823.88;5058696;28;20258;-82
2022/11/30 10:58:56;;;;;;;0.45;0.45;;;;;;;4.52;100.00;94811.84;5049837;28;20238;-79
2022/11/30 11:01:32;;;;;;;0.93;0.85;;;;;;;4.47;100.00;94822.63;5062474;28;20248;-79
2022/11/30 11:04:15;;;;;;;2.88;1.08;;;;;;;4.50;100.00;94816.72;5057457;28;20289;-76
2022/11/30 11:06:45;;;;;;;1.23;1.13;;;;;;;4.54;100.00;94807.00;5056150;28;20252;-82
2022/11/30 11:09:33;;;;;;;1.85;1.10;;;;;;;4.42;100.00;94808.47;5058431;28;20294;-77
2022/11/30 11:12:02;;;;;;;1.40;1.02;;;;;;;4.40;100.00;94800.69;5049079;28;20188;-80
2022/11/30 11:14:29;;;;;;;1.00;0.90;;;;;;;4.49;100.00;94808.94;5048817;28;20214;-80
2022/11/30 11:16:58;;;;;;;0.75;0.75;;;;;;;4.42;100.00;94819.19;5057061;28;20210;-81
2022/11/30 11:19:39;;;;;;;2.13;1.33;;;;;;;4.44;100.00;94806.31;5055380;28;20234;-81
2022/11/30 11:22:16;;;;;;;0.70;0.70;;;;;;;4.55;100.00;94805.09;5061198;28;20216;-82
2022/11/30 11:24:43;;;;;;;1.73;0.60;;;;;;;4.48;100.00;94807.34;5066788;28;20314;-78
2022/11/30 11:27:24;;;;;;;0.68;0.68;;;;;;;4.53;100.00;94804.59;5056778;28;20203;-78
2022/11/30 11:30:01;;;;;;;1.63;1.13;;;;;;;4.45;100.00;94808.72;5048793;28;20282;-84
2022/11/30 11:32:29;;;;;;;2.15;1.00;;;;;;;4.46;100.00;94814.88;5061950;28;20194;-79
2022/11/30 11:34:56;;;;;;;1.90;1.17;;;;;;;4.44;100.00;94811.66;5060608;28;20222;-79
2022/11/30 11:37:27;;;;;;;1.73;1.63;;;;;;;4.43;100.00;94799.34;5059204;28;20200;-79
2022/11/30 11:40:04;;;;;;;0.80;0.80;;;;;;;4.45;100.00;94810.59;5063575;28;20854;-79
2022/11/30 11:42:34;;;;;;;3.22;1.13;;;;;;;4.42;100.00;94805.78;5069848;28;20226;-77
2022/11/30 11:45:01;;;;;;;1.23;0.93;;;;;;;4.41;100.00;94796.13;5061497;28;20459;-78